sensor_id;sensor_type;location;lat;lon;timestamp;P1;durP1;ratioP1;P2;durP2;ratioP2
55575;SDS011;41437;45.478;9.116;2023-05-07T00:00:33;10.90;;;6.32;;
55575;SDS011;41437;45.478;9.116;2023-05-07T00:03:36;7.95;;;5.57;;
55575;SDS011;41437;45.478;9.116;2023-05-07T00:06:37;7.70;;;5.05;;
55575;SDS011;41437;45.478;9.116;2023-05-07T00:09:39;11.07;;;5.22;;
55575;SDS011;41437;45.478;9.116;2023-05-07T00:12:41;6.65;;;4.13;;
55575;SDS011;41437;45.478;9.116;2023-05-07T00:15:42;7.15;;;3.40;;
55575;SDS011;41437;45.478;9.116;2023-05-07T00:18:45;6.35;;;2.90;;
55575;SDS011;41437;45.478;9.116;2023-05-07T00:21:46;4.70;;;2.63;;
55575;SDS011;41437;45.478;9.116;2023-05-07T00:24:48;5.03;;;2.40;;
55575;SDS011;41437;45.478;9.116;2023-05-07T00:27:49;5.15;;;2.70;;
55575;SDS011;41437;45.478;9.116;2023-05-07T00:30:50;3.97;;;2.40;;
55575;SDS011;41437;45.478;9.116;2023-05-07T00:33:53;5.85;;;2.50;;
55575;SDS011;41437;45.478;9.116;2023-05-07T00:36:54;4.93;;;2.28;;
55575;SDS011;41437;45.478;9.116;2023-05-07T00:39:55;4.63;;;2.53;;
55575;SDS011;41437;45.478;9.116;2023-05-07T00:42:57;4.93;;;2.20;;
55575;SDS011;41437;45.478;9.116;2023-05-07T00:45:59;5.60;;;2.40;;
55575;SDS011;41437;45.478;9.116;2023-05-07T00:49:02;4.47;;;2.17;;
55575;SDS011;41437;45.478;9.116;2023-05-07T00:52:05;5.65;;;2.03;;
55575;SDS011;41437;45.478;9.116;2023-05-07T00:55:07;5.75;;;2.15;;
55575;SDS011;41437;45.478;9.116;2023-05-07T00:58:09;4.68;;;2.38;;
55575;SDS011;41437;45.478;9.116;2023-05-07T01:01:10;5.13;;;2.70;;
55575;SDS011;41437;45.478;9.116;2023-05-07T01:04:12;6.22;;;2.80;;
55575;SDS011;41437;45.478;9.116;2023-05-07T01:07:14;5.97;;;3.42;;
55575;SDS011;41437;45.478;9.116;2023-05-07T01:10:15;9.10;;;3.55;;
55575;SDS011;41437;45.478;9.116;2023-05-07T01:13:17;5.18;;;3.70;;
55575;SDS011;41437;45.478;9.116;2023-05-07T01:16:19;5.47;;;3.95;;
55575;SDS011;41437;45.478;9.116;2023-05-07T01:19:22;5.85;;;3.58;;
55575;SDS011;41437;45.478;9.116;2023-05-07T01:22:29;10.60;;;5.00;;
55575;SDS011;41437;45.478;9.116;2023-05-07T01:25:31;8.45;;;4.15;;
55575;SDS011;41437;45.478;9.116;2023-05-07T01:28:32;7.40;;;3.78;;
55575;SDS011;41437;45.478;9.116;2023-05-07T01:31:33;7.15;;;3.42;;
55575;SDS011;41437;45.478;9.116;2023-05-07T01:34:35;10.30;;;3.80;;
55575;SDS011;41437;45.478;9.116;2023-05-07T01:37:38;7.50;;;3.28;;
55575;SDS011;41437;45.478;9.116;2023-05-07T01:40:40;5.60;;;3.00;;
55575;SDS011;41437;45.478;9.116;2023-05-07T01:43:41;5.32;;;2.97;;
55575;SDS011;41437;45.478;9.116;2023-05-07T01:46:43;5.00;;;2.80;;
55575;SDS011;41437;45.478;9.116;2023-05-07T01:49:45;5.65;;;2.75;;
55575;SDS011;41437;45.478;9.116;2023-05-07T01:52:47;4.72;;;2.85;;
55575;SDS011;41437;45.478;9.116;2023-05-07T01:55:50;6.25;;;2.60;;
55575;SDS011;41437;45.478;9.116;2023-05-07T01:58:52;9.00;;;2.42;;
55575;SDS011;41437;45.478;9.116;2023-05-07T02:01:53;4.72;;;1.95;;
55575;SDS011;41437;45.478;9.116;2023-05-07T02:04:54;6.80;;;1.85;;
55575;SDS011;41437;45.478;9.116;2023-05-07T02:07:57;3.88;;;1.92;;
55575;SDS011;41437;45.478;9.116;2023-05-07T02:10:58;3.65;;;1.70;;
55575;SDS011;41437;45.478;9.116;2023-05-07T02:14:00;4.85;;;1.80;;
55575;SDS011;41437;45.478;9.116;2023-05-07T02:17:01;6.38;;;2.03;;
55575;SDS011;41437;45.478;9.116;2023-05-07T02:20:03;4.47;;;1.75;;
55575;SDS011;41437;45.478;9.116;2023-05-07T02:23:06;5.03;;;1.80;;
55575;SDS011;41437;45.478;9.116;2023-05-07T02:26:07;3.58;;;1.60;;
55575;SDS011;41437;45.478;9.116;2023-05-07T02:29:08;6.80;;;1.70;;
55575;SDS011;41437;45.478;9.116;2023-05-07T02:32:10;5.25;;;1.67;;
55575;SDS011;41437;45.478;9.116;2023-05-07T02:35:11;3.40;;;1.50;;
55575;SDS011;41437;45.478;9.116;2023-05-07T02:38:14;3.75;;;1.70;;
55575;SDS011;41437;45.478;9.116;2023-05-07T02:41:15;2.53;;;1.48;;
55575;SDS011;41437;45.478;9.116;2023-05-07T02:44:16;3.75;;;1.50;;
55575;SDS011;41437;45.478;9.116;2023-05-07T02:47:18;4.90;;;1.63;;
55575;SDS011;41437;45.478;9.116;2023-05-07T02:50:19;4.15;;;1.60;;
55575;SDS011;41437;45.478;9.116;2023-05-07T02:53:22;4.45;;;1.90;;
55575;SDS011;41437;45.478;9.116;2023-05-07T02:56:26;4.18;;;1.90;;
55575;SDS011;41437;45.478;9.116;2023-05-07T02:59:27;4.32;;;1.80;;
55575;SDS011;41437;45.478;9.116;2023-05-07T03:02:28;4.75;;;1.85;;
55575;SDS011;41437;45.478;9.116;2023-05-07T03:05:30;3.75;;;2.00;;
55575;SDS011;41437;45.478;9.116;2023-05-07T03:08:33;4.65;;;2.20;;
55575;SDS011;41437;45.478;9.116;2023-05-07T03:11:34;6.13;;;2.20;;
55575;SDS011;41437;45.478;9.116;2023-05-07T03:14:36;4.78;;;2.33;;
55575;SDS011;41437;45.478;9.116;2023-05-07T03:17:37;4.20;;;2.40;;
55575;SDS011;41437;45.478;9.116;2023-05-07T03:20:39;4.15;;;2.20;;
55575;SDS011;41437;45.478;9.116;2023-05-07T03:23:41;3.65;;;2.03;;
55575;SDS011;41437;45.478;9.116;2023-05-07T03:26:43;6.38;;;2.20;;
55575;SDS011;41437;45.478;9.116;2023-05-07T03:29:44;5.32;;;2.25;;
55575;SDS011;41437;45.478;9.116;2023-05-07T03:32:45;5.35;;;2.13;;
55575;SDS011;41437;45.478;9.116;2023-05-07T03:35:46;3.90;;;2.10;;
55575;SDS011;41437;45.478;9.116;2023-05-07T03:38:49;5.03;;;1.88;;
55575;SDS011;41437;45.478;9.116;2023-05-07T03:41:50;3.88;;;1.70;;
55575;SDS011;41437;45.478;9.116;2023-05-07T03:44:52;5.53;;;1.92;;
55575;SDS011;41437;45.478;9.116;2023-05-07T03:47:53;3.40;;;1.80;;
55575;SDS011;41437;45.478;9.116;2023-05-07T03:50:55;4.68;;;1.90;;
55575;SDS011;41437;45.478;9.116;2023-05-07T03:53:58;4.80;;;2.00;;
55575;SDS011;41437;45.478;9.116;2023-05-07T03:56:59;3.25;;;1.90;;
55575;SDS011;41437;45.478;9.116;2023-05-07T04:00:00;4.57;;;2.03;;
55575;SDS011;41437;45.478;9.116;2023-05-07T04:03:04;4.45;;;1.90;;
55575;SDS011;41437;45.478;9.116;2023-05-07T04:06:05;4.72;;;1.80;;
55575;SDS011;41437;45.478;9.116;2023-05-07T04:09:08;5.07;;;2.10;;
55575;SDS011;41437;45.478;9.116;2023-05-07T04:12:09;3.53;;;2.03;;
55575;SDS011;41437;45.478;9.116;2023-05-07T04:15:11;4.43;;;2.03;;
55575;SDS011;41437;45.478;9.116;2023-05-07T04:18:12;7.13;;;2.45;;
55575;SDS011;41437;45.478;9.116;2023-05-07T04:21:14;4.93;;;2.25;;
55575;SDS011;41437;45.478;9.116;2023-05-07T04:24:18;4.77;;;1.90;;
55575;SDS011;41437;45.478;9.116;2023-05-07T04:27:19;3.63;;;2.10;;
55575;SDS011;41437;45.478;9.116;2023-05-07T04:30:22;7.50;;;2.00;;
55575;SDS011;41437;45.478;9.116;2023-05-07T04:33:23;3.50;;;1.90;;
55575;SDS011;41437;45.478;9.116;2023-05-07T04:36:24;4.15;;;2.10;;
55575;SDS011;41437;45.478;9.116;2023-05-07T04:39:28;5.15;;;2.00;;
55575;SDS011;41437;45.478;9.116;2023-05-07T04:42:30;3.63;;;1.90;;
55575;SDS011;41437;45.478;9.116;2023-05-07T04:45:31;5.10;;;1.90;;
55575;SDS011;41437;45.478;9.116;2023-05-07T04:48:32;3.50;;;1.80;;
55575;SDS011;41437;45.478;9.116;2023-05-07T04:51:34;3.17;;;1.63;;
55575;SDS011;41437;45.478;9.116;2023-05-07T04:54:36;3.33;;;1.73;;
55575;SDS011;41437;45.478;9.116;2023-05-07T04:57:38;4.40;;;2.00;;
55575;SDS011;41437;45.478;9.116;2023-05-07T05:00:40;3.67;;;1.60;;
55575;SDS011;41437;45.478;9.116;2023-05-07T05:03:42;3.42;;;1.90;;
55575;SDS011;41437;45.478;9.116;2023-05-07T05:06:50;3.67;;;1.88;;
55575;SDS011;41437;45.478;9.116;2023-05-07T05:09:53;3.85;;;2.00;;
55575;SDS011;41437;45.478;9.116;2023-05-07T05:12:55;3.03;;;1.70;;
55575;SDS011;41437;45.478;9.116;2023-05-07T05:15:56;4.82;;;1.70;;
55575;SDS011;41437;45.478;9.116;2023-05-07T05:18:58;3.92;;;1.88;;
55575;SDS011;41437;45.478;9.116;2023-05-07T05:22:01;3.85;;;1.90;;
55575;SDS011;41437;45.478;9.116;2023-05-07T05:25:05;3.45;;;1.98;;
55575;SDS011;41437;45.478;9.116;2023-05-07T05:28:06;5.32;;;1.95;;
55575;SDS011;41437;45.478;9.116;2023-05-07T05:31:08;4.30;;;1.85;;
55575;SDS011;41437;45.478;9.116;2023-05-07T05:34:09;4.72;;;2.00;;
55575;SDS011;41437;45.478;9.116;2023-05-07T05:37:10;4.93;;;2.00;;
55575;SDS011;41437;45.478;9.116;2023-05-07T05:40:13;3.60;;;2.05;;
55575;SDS011;41437;45.478;9.116;2023-05-07T05:43:15;4.45;;;2.17;;
55575;SDS011;41437;45.478;9.116;2023-05-07T05:46:16;5.93;;;2.13;;
55575;SDS011;41437;45.478;9.116;2023-05-07T05:49:17;5.55;;;2.15;;
55575;SDS011;41437;45.478;9.116;2023-05-07T05:52:18;5.00;;;2.08;;
55575;SDS011;41437;45.478;9.116;2023-05-07T05:55:21;3.95;;;1.90;;
55575;SDS011;41437;45.478;9.116;2023-05-07T05:58:23;3.93;;;2.10;;
55575;SDS011;41437;45.478;9.116;2023-05-07T06:01:24;3.92;;;2.03;;
55575;SDS011;41437;45.478;9.116;2023-05-07T06:04:26;3.53;;;2.10;;
55575;SDS011;41437;45.478;9.116;2023-05-07T06:07:27;4.45;;;2.25;;
55575;SDS011;41437;45.478;9.116;2023-05-07T06:10:30;4.07;;;2.20;;
55575;SDS011;41437;45.478;9.116;2023-05-07T06:13:31;4.15;;;2.10;;
55575;SDS011;41437;45.478;9.116;2023-05-07T06:16:32;4.40;;;2.22;;
55575;SDS011;41437;45.478;9.116;2023-05-07T06:19:34;4.65;;;2.20;;
55575;SDS011;41437;45.478;9.116;2023-05-07T06:22:37;3.57;;;2.07;;
55575;SDS011;41437;45.478;9.116;2023-05-07T06:25:39;5.13;;;2.10;;
55575;SDS011;41437;45.478;9.116;2023-05-07T06:28:40;4.68;;;2.35;;
55575;SDS011;41437;45.478;9.116;2023-05-07T06:31:42;4.40;;;2.10;;
55575;SDS011;41437;45.478;9.116;2023-05-07T06:34:43;4.50;;;2.10;;
55575;SDS011;41437;45.478;9.116;2023-05-07T06:37:44;4.88;;;2.05;;
55575;SDS011;41437;45.478;9.116;2023-05-07T06:40:49;6.90;;;2.00;;
55575;SDS011;41437;45.478;9.116;2023-05-07T06:43:50;5.45;;;2.50;;
55575;SDS011;41437;45.478;9.116;2023-05-07T06:46:51;4.70;;;2.20;;
55575;SDS011;41437;45.478;9.116;2023-05-07T06:49:53;3.88;;;2.08;;
55575;SDS011;41437;45.478;9.116;2023-05-07T06:52:54;4.03;;;2.40;;
55575;SDS011;41437;45.478;9.116;2023-05-07T06:55:57;4.13;;;2.30;;
55575;SDS011;41437;45.478;9.116;2023-05-07T06:59:01;4.00;;;2.50;;
55575;SDS011;41437;45.478;9.116;2023-05-07T07:02:03;5.22;;;2.30;;
55575;SDS011;41437;45.478;9.116;2023-05-07T07:05:05;4.63;;;2.60;;
55575;SDS011;41437;45.478;9.116;2023-05-07T07:08:06;4.97;;;2.55;;
55575;SDS011;41437;45.478;9.116;2023-05-07T07:11:09;4.70;;;2.20;;
55575;SDS011;41437;45.478;9.116;2023-05-07T07:14:11;5.18;;;2.50;;
55575;SDS011;41437;45.478;9.116;2023-05-07T07:17:13;8.23;;;2.80;;
55575;SDS011;41437;45.478;9.116;2023-05-07T07:20:14;5.10;;;2.63;;
55575;SDS011;41437;45.478;9.116;2023-05-07T07:23:16;5.57;;;2.50;;
55575;SDS011;41437;45.478;9.116;2023-05-07T07:26:18;4.95;;;2.78;;
55575;SDS011;41437;45.478;9.116;2023-05-07T07:29:20;4.65;;;2.80;;
55575;SDS011;41437;45.478;9.116;2023-05-07T07:32:22;5.00;;;3.15;;
55575;SDS011;41437;45.478;9.116;2023-05-07T07:35:23;4.93;;;3.15;;
55575;SDS011;41437;45.478;9.116;2023-05-07T07:38:24;6.90;;;2.95;;
55575;SDS011;41437;45.478;9.116;2023-05-07T07:41:27;7.78;;;3.05;;
55575;SDS011;41437;45.478;9.116;2023-05-07T07:44:28;5.97;;;2.40;;
55575;SDS011;41437;45.478;9.116;2023-05-07T07:47:29;5.13;;;2.40;;
55575;SDS011;41437;45.478;9.116;2023-05-07T07:50:31;4.82;;;2.22;;
55575;SDS011;41437;45.478;9.116;2023-05-07T07:53:32;3.85;;;2.05;;
55575;SDS011;41437;45.478;9.116;2023-05-07T07:56:35;5.72;;;2.28;;
55575;SDS011;41437;45.478;9.116;2023-05-07T07:59:36;5.88;;;2.20;;
55575;SDS011;41437;45.478;9.116;2023-05-07T08:02:37;8.95;;;3.20;;
55575;SDS011;41437;45.478;9.116;2023-05-07T08:05:39;6.07;;;2.40;;
55575;SDS011;41437;45.478;9.116;2023-05-07T08:08:40;5.47;;;2.42;;
55575;SDS011;41437;45.478;9.116;2023-05-07T08:11:43;4.97;;;2.20;;
55575;SDS011;41437;45.478;9.116;2023-05-07T08:14:44;5.03;;;2.30;;
55575;SDS011;41437;45.478;9.116;2023-05-07T08:17:46;4.53;;;2.08;;
55575;SDS011;41437;45.478;9.116;2023-05-07T08:20:47;4.30;;;1.95;;
55575;SDS011;41437;45.478;9.116;2023-05-07T08:23:48;5.10;;;2.40;;
55575;SDS011;41437;45.478;9.116;2023-05-07T08:26:51;5.05;;;2.30;;
55575;SDS011;41437;45.478;9.116;2023-05-07T08:29:52;4.82;;;2.50;;
55575;SDS011;41437;45.478;9.116;2023-05-07T08:32:53;4.07;;;2.60;;
55575;SDS011;41437;45.478;9.116;2023-05-07T08:35:55;6.97;;;2.85;;
55575;SDS011;41437;45.478;9.116;2023-05-07T08:38:56;6.97;;;2.83;;
55575;SDS011;41437;45.478;9.116;2023-05-07T08:42:00;5.97;;;3.03;;
55575;SDS011;41437;45.478;9.116;2023-05-07T08:45:02;7.45;;;3.60;;
55575;SDS011;41437;45.478;9.116;2023-05-07T08:48:08;6.70;;;3.70;;
55575;SDS011;41437;45.478;9.116;2023-05-07T08:51:12;8.02;;;4.05;;
55575;SDS011;41437;45.478;9.116;2023-05-07T08:54:15;6.20;;;3.63;;
55575;SDS011;41437;45.478;9.116;2023-05-07T08:57:19;5.55;;;3.67;;
55575;SDS011;41437;45.478;9.116;2023-05-07T09:00:21;6.95;;;4.38;;
55575;SDS011;41437;45.478;9.116;2023-05-07T09:03:23;6.68;;;3.70;;
55575;SDS011;41437;45.478;9.116;2023-05-07T09:06:24;6.82;;;3.55;;
55575;SDS011;41437;45.478;9.116;2023-05-07T09:09:26;6.10;;;3.28;;
55575;SDS011;41437;45.478;9.116;2023-05-07T09:12:29;7.63;;;3.88;;
55575;SDS011;41437;45.478;9.116;2023-05-07T09:15:30;7.97;;;3.63;;
55575;SDS011;41437;45.478;9.116;2023-05-07T09:18:32;5.78;;;3.85;;
55575;SDS011;41437;45.478;9.116;2023-05-07T09:21:33;6.28;;;3.90;;
55575;SDS011;41437;45.478;9.116;2023-05-07T09:24:35;5.72;;;3.85;;
55575;SDS011;41437;45.478;9.116;2023-05-07T09:27:41;5.50;;;3.35;;
55575;SDS011;41437;45.478;9.116;2023-05-07T09:30:43;8.10;;;3.90;;
55575;SDS011;41437;45.478;9.116;2023-05-07T09:33:46;8.65;;;4.10;;
55575;SDS011;41437;45.478;9.116;2023-05-07T09:36:47;7.30;;;4.63;;
55575;SDS011;41437;45.478;9.116;2023-05-07T09:39:49;6.18;;;4.30;;
55575;SDS011;41437;45.478;9.116;2023-05-07T09:42:52;5.75;;;3.15;;
55575;SDS011;41437;45.478;9.116;2023-05-07T09:45:54;5.55;;;3.22;;
55575;SDS011;41437;45.478;9.116;2023-05-07T09:48:56;4.25;;;2.80;;
55575;SDS011;41437;45.478;9.116;2023-05-07T09:51:59;5.88;;;2.58;;
55575;SDS011;41437;45.478;9.116;2023-05-07T09:55:01;4.43;;;2.60;;
55575;SDS011;41437;45.478;9.116;2023-05-07T09:58:05;7.40;;;2.83;;
55575;SDS011;41437;45.478;9.116;2023-05-07T10:01:07;6.15;;;2.95;;
55575;SDS011;41437;45.478;9.116;2023-05-07T10:04:08;6.10;;;2.70;;
55575;SDS011;41437;45.478;9.116;2023-05-07T10:07:10;4.55;;;2.58;;
55575;SDS011;41437;45.478;9.116;2023-05-07T10:10:12;6.25;;;2.95;;
55575;SDS011;41437;45.478;9.116;2023-05-07T10:13:15;6.05;;;2.88;;
55575;SDS011;41437;45.478;9.116;2023-05-07T10:16:17;3.70;;;2.30;;
55575;SDS011;41437;45.478;9.116;2023-05-07T10:19:19;5.47;;;2.55;;
55575;SDS011;41437;45.478;9.116;2023-05-07T10:22:20;10.18;;;2.78;;
55575;SDS011;41437;45.478;9.116;2023-05-07T10:25:23;6.75;;;2.83;;
55575;SDS011;41437;45.478;9.116;2023-05-07T10:28:27;5.18;;;2.63;;
55575;SDS011;41437;45.478;9.116;2023-05-07T10:31:41;7.20;;;2.20;;
55575;SDS011;41437;45.478;9.116;2023-05-07T10:34:45;7.30;;;2.90;;
55575;SDS011;41437;45.478;9.116;2023-05-07T10:40:50;5.85;;;2.85;;
55575;SDS011;41437;45.478;9.116;2023-05-07T10:43:52;4.43;;;2.70;;
55575;SDS011;41437;45.478;9.116;2023-05-07T10:47:04;4.63;;;2.47;;
55575;SDS011;41437;45.478;9.116;2023-05-07T10:50:20;5.70;;;3.10;;
55575;SDS011;41437;45.478;9.116;2023-05-07T10:53:25;6.72;;;3.00;;
55575;SDS011;41437;45.478;9.116;2023-05-07T10:56:29;3.70;;;2.80;;
55575;SDS011;41437;45.478;9.116;2023-05-07T10:59:33;5.90;;;2.85;;
55575;SDS011;41437;45.478;9.116;2023-05-07T11:09:14;9.10;;;3.30;;
55575;SDS011;41437;45.478;9.116;2023-05-07T11:12:16;8.38;;;3.35;;
55575;SDS011;41437;45.478;9.116;2023-05-07T11:18:52;4.60;;;3.10;;
55575;SDS011;41437;45.478;9.116;2023-05-07T11:21:54;5.20;;;3.35;;
55575;SDS011;41437;45.478;9.116;2023-05-07T11:24:56;5.38;;;3.08;;
55575;SDS011;41437;45.478;9.116;2023-05-07T11:28:03;3.92;;;2.58;;
55575;SDS011;41437;45.478;9.116;2023-05-07T11:31:05;5.15;;;3.03;;
55575;SDS011;41437;45.478;9.116;2023-05-07T11:34:09;4.53;;;2.65;;
55575;SDS011;41437;45.478;9.116;2023-05-07T11:37:16;5.72;;;3.03;;
55575;SDS011;41437;45.478;9.116;2023-05-07T11:40:17;3.38;;;2.55;;
55575;SDS011;41437;45.478;9.116;2023-05-07T11:43:19;4.05;;;2.60;;
55575;SDS011;41437;45.478;9.116;2023-05-07T11:46:21;4.47;;;2.95;;
55575;SDS011;41437;45.478;9.116;2023-05-07T11:49:24;5.65;;;2.70;;
55575;SDS011;41437;45.478;9.116;2023-05-07T11:52:25;4.57;;;2.63;;
55575;SDS011;41437;45.478;9.116;2023-05-07T11:55:27;5.18;;;2.88;;
55575;SDS011;41437;45.478;9.116;2023-05-07T11:58:28;3.65;;;2.50;;
55575;SDS011;41437;45.478;9.116;2023-05-07T12:01:30;4.07;;;2.50;;
55575;SDS011;41437;45.478;9.116;2023-05-07T12:04:32;5.78;;;2.88;;
55575;SDS011;41437;45.478;9.116;2023-05-07T12:07:34;8.05;;;2.67;;
55575;SDS011;41437;45.478;9.116;2023-05-07T12:10:35;5.40;;;2.72;;
55575;SDS011;41437;45.478;9.116;2023-05-07T12:13:41;5.25;;;2.63;;
55575;SDS011;41437;45.478;9.116;2023-05-07T12:16:42;3.70;;;2.30;;
55575;SDS011;41437;45.478;9.116;2023-05-07T12:19:46;7.15;;;3.33;;
55575;SDS011;41437;45.478;9.116;2023-05-07T12:25:49;4.93;;;2.70;;
55575;SDS011;41437;45.478;9.116;2023-05-07T12:28:50;7.25;;;2.78;;
55575;SDS011;41437;45.478;9.116;2023-05-07T12:31:51;4.38;;;2.50;;
55575;SDS011;41437;45.478;9.116;2023-05-07T12:34:54;5.35;;;2.90;;
55575;SDS011;41437;45.478;9.116;2023-05-07T12:37:55;9.90;;;3.58;;
55575;SDS011;41437;45.478;9.116;2023-05-07T12:40:59;4.85;;;2.67;;
55575;SDS011;41437;45.478;9.116;2023-05-07T12:44:00;3.95;;;2.67;;
55575;SDS011;41437;45.478;9.116;2023-05-07T12:47:01;5.00;;;2.63;;
55575;SDS011;41437;45.478;9.116;2023-05-07T12:50:06;5.00;;;2.42;;
55575;SDS011;41437;45.478;9.116;2023-05-07T12:53:07;6.65;;;3.10;;
55575;SDS011;41437;45.478;9.116;2023-05-07T12:56:09;5.63;;;2.90;;
55575;SDS011;41437;45.478;9.116;2023-05-07T12:59:10;6.22;;;2.40;;
55575;SDS011;41437;45.478;9.116;2023-05-07T13:02:11;4.70;;;2.70;;
55575;SDS011;41437;45.478;9.116;2023-05-07T13:05:14;4.55;;;2.40;;
55575;SDS011;41437;45.478;9.116;2023-05-07T13:08:23;3.40;;;2.30;;
55575;SDS011;41437;45.478;9.116;2023-05-07T13:11:24;3.88;;;2.40;;
55575;SDS011;41437;45.478;9.116;2023-05-07T13:14:25;6.03;;;2.88;;
55575;SDS011;41437;45.478;9.116;2023-05-07T13:17:27;4.15;;;2.47;;
55575;SDS011;41437;45.478;9.116;2023-05-07T13:20:29;5.47;;;2.10;;
55575;SDS011;41437;45.478;9.116;2023-05-07T13:23:30;5.38;;;2.65;;
55575;SDS011;41437;45.478;9.116;2023-05-07T13:26:32;3.80;;;2.10;;
55575;SDS011;41437;45.478;9.116;2023-05-07T13:29:35;5.80;;;2.42;;
55575;SDS011;41437;45.478;9.116;2023-05-07T13:32:37;5.30;;;2.28;;
55575;SDS011;41437;45.478;9.116;2023-05-07T13:35:39;7.28;;;2.40;;
55575;SDS011;41437;45.478;9.116;2023-05-07T13:38:41;3.50;;;2.00;;
55575;SDS011;41437;45.478;9.116;2023-05-07T13:41:44;4.72;;;2.15;;
55575;SDS011;41437;45.478;9.116;2023-05-07T13:44:46;4.85;;;2.25;;
55575;SDS011;41437;45.478;9.116;2023-05-07T13:47:47;5.90;;;2.25;;
55575;SDS011;41437;45.478;9.116;2023-05-07T13:50:50;4.38;;;2.17;;
55575;SDS011;41437;45.478;9.116;2023-05-07T13:53:52;4.45;;;1.70;;
55575;SDS011;41437;45.478;9.116;2023-05-07T13:56:54;3.07;;;1.90;;
55575;SDS011;41437;45.478;9.116;2023-05-07T13:59:55;3.10;;;1.85;;
55575;SDS011;41437;45.478;9.116;2023-05-07T14:02:57;4.20;;;1.77;;
55575;SDS011;41437;45.478;9.116;2023-05-07T14:05:59;5.00;;;2.08;;
55575;SDS011;41437;45.478;9.116;2023-05-07T14:09:01;4.57;;;2.00;;
55575;SDS011;41437;45.478;9.116;2023-05-07T14:12:03;3.00;;;1.90;;
55575;SDS011;41437;45.478;9.116;2023-05-07T14:15:04;3.10;;;1.90;;
55575;SDS011;41437;45.478;9.116;2023-05-07T14:18:06;4.45;;;1.60;;
55575;SDS011;41437;45.478;9.116;2023-05-07T14:21:09;6.68;;;2.05;;
55575;SDS011;41437;45.478;9.116;2023-05-07T14:27:11;4.68;;;2.00;;
55575;SDS011;41437;45.478;9.116;2023-05-07T14:30:15;4.15;;;1.70;;
55575;SDS011;41437;45.478;9.116;2023-05-07T14:33:17;5.88;;;1.90;;
55575;SDS011;41437;45.478;9.116;2023-05-07T14:36:19;5.55;;;2.17;;
55575;SDS011;41437;45.478;9.116;2023-05-07T14:39:22;3.75;;;1.85;;
55575;SDS011;41437;45.478;9.116;2023-05-07T14:42:24;3.78;;;1.80;;
55575;SDS011;41437;45.478;9.116;2023-05-07T14:45:25;4.60;;;1.90;;
55575;SDS011;41437;45.478;9.116;2023-05-07T14:48:26;4.25;;;1.83;;
55575;SDS011;41437;45.478;9.116;2023-05-07T14:51:29;3.92;;;1.95;;
55575;SDS011;41437;45.478;9.116;2023-05-07T14:54:30;4.65;;;1.73;;
55575;SDS011;41437;45.478;9.116;2023-05-07T14:57:32;4.90;;;2.00;;
55575;SDS011;41437;45.478;9.116;2023-05-07T15:00:34;3.80;;;1.92;;
55575;SDS011;41437;45.478;9.116;2023-05-07T15:03:36;5.00;;;2.10;;
55575;SDS011;41437;45.478;9.116;2023-05-07T15:06:38;3.63;;;1.70;;
55575;SDS011;41437;45.478;9.116;2023-05-07T15:09:40;3.42;;;2.03;;
55575;SDS011;41437;45.478;9.116;2023-05-07T15:12:41;5.32;;;2.20;;
55575;SDS011;41437;45.478;9.116;2023-05-07T15:15:43;4.18;;;1.98;;
55575;SDS011;41437;45.478;9.116;2023-05-07T15:18:44;4.95;;;2.15;;
55575;SDS011;41437;45.478;9.116;2023-05-07T15:25:12;6.40;;;3.80;;
55575;SDS011;41437;45.478;9.116;2023-05-07T15:28:20;9.63;;;6.90;;
55575;SDS011;41437;45.478;9.116;2023-05-07T15:31:22;6.85;;;3.28;;
55575;SDS011;41437;45.478;9.116;2023-05-07T15:34:24;4.73;;;2.67;;
55575;SDS011;41437;45.478;9.116;2023-05-07T15:37:28;7.45;;;2.90;;
55575;SDS011;41437;45.478;9.116;2023-05-07T15:40:41;7.75;;;2.50;;
55575;SDS011;41437;45.478;9.116;2023-05-07T15:43:51;5.13;;;2.35;;
55575;SDS011;41437;45.478;9.116;2023-05-07T15:49:54;3.47;;;2.00;;
55575;SDS011;41437;45.478;9.116;2023-05-07T15:52:55;4.00;;;1.92;;
55575;SDS011;41437;45.478;9.116;2023-05-07T15:56:06;5.93;;;2.38;;
55575;SDS011;41437;45.478;9.116;2023-05-07T15:59:07;4.90;;;2.50;;
55575;SDS011;41437;45.478;9.116;2023-05-07T16:02:13;4.45;;;2.30;;
55575;SDS011;41437;45.478;9.116;2023-05-07T16:05:22;5.13;;;2.50;;
55575;SDS011;41437;45.478;9.116;2023-05-07T16:08:23;4.53;;;2.28;;
55575;SDS011;41437;45.478;9.116;2023-05-07T16:11:31;6.85;;;2.70;;
55575;SDS011;41437;45.478;9.116;2023-05-07T16:14:33;5.55;;;2.67;;
55575;SDS011;41437;45.478;9.116;2023-05-07T16:17:37;6.38;;;2.90;;
55575;SDS011;41437;45.478;9.116;2023-05-07T16:20:41;6.72;;;2.75;;
55575;SDS011;41437;45.478;9.116;2023-05-07T16:26:49;5.78;;;2.70;;
55575;SDS011;41437;45.478;9.116;2023-05-07T16:29:50;6.85;;;2.53;;
55575;SDS011;41437;45.478;9.116;2023-05-07T16:32:55;4.13;;;2.70;;
55575;SDS011;41437;45.478;9.116;2023-05-07T16:35:58;5.95;;;2.60;;
55575;SDS011;41437;45.478;9.116;2023-05-07T16:39:00;4.75;;;2.58;;
55575;SDS011;41437;45.478;9.116;2023-05-07T16:42:11;5.00;;;2.90;;
55575;SDS011;41437;45.478;9.116;2023-05-07T16:45:14;5.25;;;3.05;;
55575;SDS011;41437;45.478;9.116;2023-05-07T16:48:20;6.30;;;2.88;;
55575;SDS011;41437;45.478;9.116;2023-05-07T16:51:26;6.47;;;3.00;;
55575;SDS011;41437;45.478;9.116;2023-05-07T16:54:32;4.38;;;3.00;;
55575;SDS011;41437;45.478;9.116;2023-05-07T16:57:43;5.82;;;2.90;;
55575;SDS011;41437;45.478;9.116;2023-05-07T17:00:44;5.75;;;2.95;;
55575;SDS011;41437;45.478;9.116;2023-05-07T17:04:00;6.75;;;3.05;;
55575;SDS011;41437;45.478;9.116;2023-05-07T17:07:03;5.28;;;2.70;;
55575;SDS011;41437;45.478;9.116;2023-05-07T17:10:07;7.78;;;3.30;;
55575;SDS011;41437;45.478;9.116;2023-05-07T17:13:16;8.25;;;2.97;;
55575;SDS011;41437;45.478;9.116;2023-05-07T17:16:23;6.88;;;2.85;;
55575;SDS011;41437;45.478;9.116;2023-05-07T17:19:29;4.72;;;2.85;;
55575;SDS011;41437;45.478;9.116;2023-05-07T17:22:30;5.60;;;3.38;;
55575;SDS011;41437;45.478;9.116;2023-05-07T17:25:38;9.00;;;3.50;;
55575;SDS011;41437;45.478;9.116;2023-05-07T17:28:48;6.63;;;3.40;;
55575;SDS011;41437;45.478;9.116;2023-05-07T17:31:53;7.93;;;3.33;;
55575;SDS011;41437;45.478;9.116;2023-05-07T17:34:56;4.65;;;3.05;;
55575;SDS011;41437;45.478;9.116;2023-05-07T17:38:00;5.25;;;3.08;;
55575;SDS011;41437;45.478;9.116;2023-05-07T17:41:04;6.15;;;3.00;;
55575;SDS011;41437;45.478;9.116;2023-05-07T17:44:09;7.55;;;3.47;;
55575;SDS011;41437;45.478;9.116;2023-05-07T17:47:13;7.65;;;3.50;;
55575;SDS011;41437;45.478;9.116;2023-05-07T17:50:14;5.30;;;3.22;;
55575;SDS011;41437;45.478;9.116;2023-05-07T17:53:15;7.63;;;3.90;;
55575;SDS011;41437;45.478;9.116;2023-05-07T17:56:17;8.63;;;3.75;;
55575;SDS011;41437;45.478;9.116;2023-05-07T17:59:20;6.38;;;3.83;;
55575;SDS011;41437;45.478;9.116;2023-05-07T18:02:27;6.32;;;3.80;;
55575;SDS011;41437;45.478;9.116;2023-05-07T18:05:28;5.72;;;3.92;;
55575;SDS011;41437;45.478;9.116;2023-05-07T18:08:33;15.00;;;9.68;;
55575;SDS011;41437;45.478;9.116;2023-05-07T18:11:37;16.60;;;10.50;;
55575;SDS011;41437;45.478;9.116;2023-05-07T18:14:43;10.60;;;6.30;;
55575;SDS011;41437;45.478;9.116;2023-05-07T18:17:47;8.23;;;5.85;;
55575;SDS011;41437;45.478;9.116;2023-05-07T18:20:55;7.85;;;4.43;;
55575;SDS011;41437;45.478;9.116;2023-05-07T18:24:04;6.63;;;3.42;;
55575;SDS011;41437;45.478;9.116;2023-05-07T18:27:06;5.47;;;3.33;;
55575;SDS011;41437;45.478;9.116;2023-05-07T18:30:14;6.82;;;3.05;;
55575;SDS011;41437;45.478;9.116;2023-05-07T18:33:15;7.45;;;2.88;;
55575;SDS011;41437;45.478;9.116;2023-05-07T18:36:16;7.03;;;2.63;;
55575;SDS011;41437;45.478;9.116;2023-05-07T18:39:17;5.30;;;2.30;;
55575;SDS011;41437;45.478;9.116;2023-05-07T18:42:19;8.25;;;2.50;;
55575;SDS011;41437;45.478;9.116;2023-05-07T18:45:21;4.25;;;2.10;;
55575;SDS011;41437;45.478;9.116;2023-05-07T18:48:23;4.68;;;1.75;;